sensor_id;sensor_type;location;lat;lon;timestamp;temperature;humidity
70151;DHT22;57517;43.562;19.540;2023-07-31T00:00:27;563.60;2432.00
70151;DHT22;57517;43.562;19.540;2023-07-31T00:02:54;563.70;2432.00
70151;DHT22;57517;43.562;19.540;2023-07-31T00:05:20;563.60;2432.00
70151;DHT22;57517;43.562;19.540;2023-07-31T00:07:45;563.70;2432.00
70151;DHT22;57517;43.562;19.540;2023-07-31T00:10:11;563.70;2432.00
70151;DHT22;57517;43.562;19.540;2023-07-31T00:12:38;563.60;2432.00
70151;DHT22;57517;43.562;19.540;2023-07-31T00:15:06;563.70;2432.00
70151;DHT22;57517;43.562;19.540;2023-07-31T00:17:32;563.70;2432.00
70151;DHT22;57517;43.562;19.540;2023-07-31T00:19:58;563.60;2432.00
70151;DHT22;57517;43.562;19.540;2023-07-31T00:22:23;563.70;2432.00
70151;DHT22;57517;43.562;19.540;2023-07-31T00:24:49;563.50;2432.00
70151;DHT22;57517;43.562;19.540;2023-07-31T00:27:15;563.50;2432.00
70151;DHT22;57517;43.562;19.540;2023-07-31T00:29:41;563.50;2432.00
70151;DHT22;57517;43.562;19.540;2023-07-31T00:32:07;563.40;2432.00
70151;DHT22;57517;43.562;19.540;2023-07-31T00:34:33;563.40;2432.00
70151;DHT22;57517;43.562;19.540;2023-07-31T00:36:59;563.30;2432.00
70151;DHT22;57517;43.562;19.540;2023-07-31T00:39:24;563.40;2432.00
70151;DHT22;57517;43.562;19.540;2023-07-31T00:41:50;563.40;2432.00
70151;DHT22;57517;43.562;19.540;2023-07-31T00:44:16;563.40;2432.00
70151;DHT22;57517;43.562;19.540;2023-07-31T00:46:42;563.40;2432.00
70151;DHT22;57517;43.562;19.540;2023-07-31T00:49:08;563.60;2432.00
70151;DHT22;57517;43.562;19.540;2023-07-31T00:51:34;563.70;2432.00
70151;DHT22;57517;43.562;19.540;2023-07-31T00:54:00;563.70;2432.00
70151;DHT22;57517;43.562;19.540;2023-07-31T00:56:27;563.60;2432.00
70151;DHT22;57517;43.562;19.540;2023-07-31T00:58:53;563.50;2432.00
70151;DHT22;57517;43.562;19.540;2023-07-31T01:01:19;563.50;2432.00
70151;DHT22;57517;43.562;19.540;2023-07-31T01:03:45;563.80;2432.00
70151;DHT22;57517;43.562;19.540;2023-07-31T01:11:59;563.90;2432.00
70151;DHT22;57517;43.562;19.540;2023-07-31T01:14:26;563.90;2432.00
70151;DHT22;57517;43.562;19.540;2023-07-31T01:16:51;563.70;2432.00
70151;DHT22;57517;43.562;19.540;2023-07-31T01:19:21;563.80;2432.00
70151;DHT22;57517;43.562;19.540;2023-07-31T01:22:30;563.60;2432.00
70151;DHT22;57517;43.562;19.540;2023-07-31T01:25:00;563.50;2432.00
70151;DHT22;57517;43.562;19.540;2023-07-31T01:27:38;563.60;2432.00
70151;DHT22;57517;43.562;19.540;2023-07-31T01:30:11;563.80;2432.00
70151;DHT22;57517;43.562;19.540;2023-07-31T01:32:42;563.70;2432.00
70151;DHT22;57517;43.562;19.540;2023-07-31T01:35:09;563.60;2432.00
70151;DHT22;57517;43.562;19.540;2023-07-31T01:37:35;563.60;2432.00
70151;DHT22;57517;43.562;19.540;2023-07-31T01:40:01;563.60;2432.00
70151;DHT22;57517;43.562;19.540;2023-07-31T01:42:27;563.40;2432.00
70151;DHT22;57517;43.562;19.540;2023-07-31T01:44:53;563.30;2432.00
70151;DHT22;57517;43.562;19.540;2023-07-31T01:47:18;563.30;2432.00
70151;DHT22;57517;43.562;19.540;2023-07-31T01:49:44;563.50;2432.00
70151;DHT22;57517;43.562;19.540;2023-07-31T01:52:10;563.40;2432.00
70151;DHT22;57517;43.562;19.540;2023-07-31T01:54:35;563.40;2432.00
70151;DHT22;57517;43.562;19.540;2023-07-31T01:57:02;563.40;2432.00
70151;DHT22;57517;43.562;19.540;2023-07-31T01:59:28;563.50;2432.00
70151;DHT22;57517;43.562;19.540;2023-07-31T02:01:54;563.50;2432.00
70151;DHT22;57517;43.562;19.540;2023-07-31T02:04:20;563.50;2432.00
70151;DHT22;57517;43.562;19.540;2023-07-31T02:06:46;563.50;2432.00
70151;DHT22;57517;43.562;19.540;2023-07-31T02:09:12;563.70;2432.00
70151;DHT22;57517;43.562;19.540;2023-07-31T02:11:37;563.70;2432.00
70151;DHT22;57517;43.562;19.540;2023-07-31T02:14:03;563.50;2432.00
70151;DHT22;57517;43.562;19.540;2023-07-31T02:16:29;563.40;2432.00
70151;DHT22;57517;43.562;19.540;2023-07-31T02:18:54;563.50;2432.00
70151;DHT22;57517;43.562;19.540;2023-07-31T02:21:20;563.40;2432.00
70151;DHT22;57517;43.562;19.540;2023-07-31T02:23:46;563.40;2432.00
70151;DHT22;57517;43.562;19.540;2023-07-31T02:26:12;563.20;2432.00
70151;DHT22;57517;43.562;19.540;2023-07-31T02:28:38;563.20;2432.00
70151;DHT22;57517;43.562;19.540;2023-07-31T02:31:03;563.30;2432.00
70151;DHT22;57517;43.562;19.540;2023-07-31T02:33:29;563.40;2432.00
70151;DHT22;57517;43.562;19.540;2023-07-31T02:35:55;563.40;2432.00
70151;DHT22;57517;43.562;19.540;2023-07-31T02:38:21;563.40;2432.00
70151;DHT22;57517;43.562;19.540;2023-07-31T02:40:47;563.30;2432.00
70151;DHT22;57517;43.562;19.540;2023-07-31T02:43:13;563.20;2432.00
70151;DHT22;57517;43.562;19.540;2023-07-31T02:45:39;563.20;2432.00
70151;DHT22;57517;43.562;19.540;2023-07-31T02:48:05;563.40;2432.00
70151;DHT22;57517;43.562;19.540;2023-07-31T02:50:31;563.40;2432.00
70151;DHT22;57517;43.562;19.540;2023-07-31T02:52:57;563.50;2432.00
70151;DHT22;57517;43.562;19.540;2023-07-31T02:55:23;563.60;2432.00
70151;DHT22;57517;43.562;19.540;2023-07-31T02:57:49;563.40;2432.00
70151;DHT22;57517;43.562;19.540;2023-07-31T03:00:15;563.40;2432.00
70151;DHT22;57517;43.562;19.540;2023-07-31T03:02:40;563.40;2432.00
70151;DHT22;57517;43.562;19.540;2023-07-31T03:05:06;563.30;2432.00
70151;DHT22;57517;43.562;19.540;2023-07-31T03:07:32;563.30;2432.00
70151;DHT22;57517;43.562;19.540;2023-07-31T03:09:58;563.40;2432.00
70151;DHT22;57517;43.562;19.540;2023-07-31T03:12:24;563.60;2432.00
70151;DHT22;57517;43.562;19.540;2023-07-31T03:14:50;563.50;2432.00
70151;DHT22;57517;43.562;19.540;2023-07-31T03:17:15;563.60;2432.00
70151;DHT22;57517;43.562;19.540;2023-07-31T03:19:41;563.70;2432.00
70151;DHT22;57517;43.562;19.540;2023-07-31T03:22:07;563.70;2432.00
70151;DHT22;57517;43.562;19.540;2023-07-31T03:24:33;563.70;2432.00
70151;DHT22;57517;43.562;19.540;2023-07-31T03:26:58;563.70;2432.00
70151;DHT22;57517;43.562;19.540;2023-07-31T03:29:24;563.70;2432.00
70151;DHT22;57517;43.562;19.540;2023-07-31T03:31:50;563.70;2432.00
70151;DHT22;57517;43.562;19.540;2023-07-31T03:34:16;563.50;2432.00
70151;DHT22;57517;43.562;19.540;2023-07-31T03:36:42;563.60;2432.00
70151;DHT22;57517;43.562;19.540;2023-07-31T03:39:08;563.40;2432.00
70151;DHT22;57517;43.562;19.540;2023-07-31T03:41:33;563.40;2432.00
70151;DHT22;57517;43.562;19.540;2023-07-31T03:43:59;563.40;2432.00
70151;DHT22;57517;43.562;19.540;2023-07-31T03:46:25;563.40;2432.00
70151;DHT22;57517;43.562;19.540;2023-07-31T03:48:51;563.40;2432.00
70151;DHT22;57517;43.562;19.540;2023-07-31T03:51:17;563.20;2432.00
70151;DHT22;57517;43.562;19.540;2023-07-31T03:53:43;538.50;2406.40
70151;DHT22;57517;43.562;19.540;2023-07-31T03:56:09;538.50;2406.40
70151;DHT22;57517;43.562;19.540;2023-07-31T03:58:35;563.20;2432.00
70151;DHT22;57517;43.562;19.540;2023-07-31T04:01:02;563.20;2432.00
70151;DHT22;57517;43.562;19.540;2023-07-31T04:03:29;563.40;2432.00
70151;DHT22;57517;43.562;19.540;2023-07-31T04:05:55;563.40;2432.00
70151;DHT22;57517;43.562;19.540;2023-07-31T04:08:22;563.30;2432.00
70151;DHT22;57517;43.562;19.540;2023-07-31T04:10:48;563.30;2432.00
70151;DHT22;57517;43.562;19.540;2023-07-31T04:13:14;563.20;2432.00
70151;DHT22;57517;43.562;19.540;2023-07-31T04:15:40;563.20;2432.00
70151;DHT22;57517;43.562;19.540;2023-07-31T04:18:06;563.40;2432.00
70151;DHT22;57517;43.562;19.540;2023-07-31T04:20:31;563.40;2432.00
70151;DHT22;57517;43.562;19.540;2023-07-31T04:22:57;538.50;2406.40
70151;DHT22;57517;43.562;19.540;2023-07-31T04:25:23;538.50;2406.40
70151;DHT22;57517;43.562;19.540;2023-07-31T04:27:49;538.30;2406.40
70151;DHT22;57517;43.562;19.540;2023-07-31T04:30:15;538.40;2406.40
70151;DHT22;57517;43.562;19.540;2023-07-31T04:32:40;538.50;2406.40
70151;DHT22;57517;43.562;19.540;2023-07-31T04:35:06;538.40;2406.40
70151;DHT22;57517;43.562;19.540;2023-07-31T04:37:32;538.50;2406.40
70151;DHT22;57517;43.562;19.540;2023-07-31T04:39:58;538.40;2406.40
70151;DHT22;57517;43.562;19.540;2023-07-31T04:42:24;563.20;2432.00
70151;DHT22;57517;43.562;19.540;2023-07-31T04:44:50;538.50;2406.40
70151;DHT22;57517;43.562;19.540;2023-07-31T04:47:16;538.50;2406.40
70151;DHT22;57517;43.562;19.540;2023-07-31T04:49:42;538.50;2406.40
70151;DHT22;57517;43.562;19.540;2023-07-31T04:52:07;563.30;2432.00
70151;DHT22;57517;43.562;19.540;2023-07-31T04:54:33;563.40;2432.00
70151;DHT22;57517;43.562;19.540;2023-07-31T04:56:59;563.40;2432.00
70151;DHT22;57517;43.562;19.540;2023-07-31T04:59:25;563.20;2432.00
70151;DHT22;57517;43.562;19.540;2023-07-31T05:01:50;563.30;2432.00
70151;DHT22;57517;43.562;19.540;2023-07-31T05:04:17;563.30;2432.00
70151;DHT22;57517;43.562;19.540;2023-07-31T05:06:43;563.40;2432.00
70151;DHT22;57517;43.562;19.540;2023-07-31T05:09:09;563.40;2432.00
70151;DHT22;57517;43.562;19.540;2023-07-31T05:11:35;563.50;2432.00
70151;DHT22;57517;43.562;19.540;2023-07-31T05:14:01;563.50;2432.00
70151;DHT22;57517;43.562;19.540;2023-07-31T05:16:27;563.70;2432.00
70151;DHT22;57517;43.562;19.540;2023-07-31T05:18:53;563.80;2432.00
70151;DHT22;57517;43.562;19.540;2023-07-31T05:21:18;563.70;2432.00
70151;DHT22;57517;43.562;19.540;2023-07-31T05:23:44;563.70;2432.00
70151;DHT22;57517;43.562;19.540;2023-07-31T05:26:10;563.90;2432.00
70151;DHT22;57517;43.562;19.540;2023-07-31T05:28:36;564.00;2432.00
70151;DHT22;57517;43.562;19.540;2023-07-31T05:31:03;563.90;2432.00
70151;DHT22;57517;43.562;19.540;2023-07-31T05:33:29;588.80;2432.00
70151;DHT22;57517;43.562;19.540;2023-07-31T05:35:55;588.80;2432.00
70151;DHT22;57517;43.562;19.540;2023-07-31T05:38:21;589.20;2432.00
70151;DHT22;57517;43.562;19.540;2023-07-31T05:40:47;589.20;2432.00
70151;DHT22;57517;43.562;19.540;2023-07-31T05:43:13;589.10;2432.00
70151;DHT22;57517;43.562;19.540;2023-07-31T05:45:38;589.10;2432.00
70151;DHT22;57517;43.562;19.540;2023-07-31T05:48:05;589.10;2432.00
70151;DHT22;57517;43.562;19.540;2023-07-31T05:50:31;588.90;2432.00
70151;DHT22;57517;43.562;19.540;2023-07-31T05:52:57;588.80;2432.00
70151;DHT22;57517;43.562;19.540;2023-07-31T05:55:24;588.90;2432.00
70151;DHT22;57517;43.562;19.540;2023-07-31T05:57:52;564.10;2432.00
70151;DHT22;57517;43.562;19.540;2023-07-31T06:00:18;564.10;2432.00
70151;DHT22;57517;43.562;19.540;2023-07-31T06:02:44;563.90;2432.00
70151;DHT22;57517;43.562;19.540;2023-07-31T06:05:10;563.80;2432.00
70151;DHT22;57517;43.562;19.540;2023-07-31T06:07:36;563.80;2432.00
70151;DHT22;57517;43.562;19.540;2023-07-31T06:10:02;563.60;2432.00
70151;DHT22;57517;43.562;19.540;2023-07-31T06:12:35;563.70;2432.00
70151;DHT22;57517;43.562;19.540;2023-07-31T06:15:02;563.80;2432.00
70151;DHT22;57517;43.562;19.540;2023-07-31T06:17:29;563.90;2432.00
70151;DHT22;57517;43.562;19.540;2023-07-31T06:19:55;563.90;2432.00
70151;DHT22;57517;43.562;19.540;2023-07-31T06:22:21;564.10;2432.00
70151;DHT22;57517;43.562;19.540;2023-07-31T06:24:47;588.80;2432.00
70151;DHT22;57517;43.562;19.540;2023-07-31T06:27:13;589.10;2432.00
70151;DHT22;57517;43.562;19.540;2023-07-31T06:29:39;589.30;2432.00
70151;DHT22;57517;43.562;19.540;2023-07-31T06:32:05;589.50;2432.00
70151;DHT22;57517;43.562;19.540;2023-07-31T06:34:30;614.40;2432.00
70151;DHT22;57517;43.562;19.540;2023-07-31T06:36:56;614.50;2432.00
70151;DHT22;57517;43.562;19.540;2023-07-31T06:39:22;614.80;2432.00
70151;DHT22;57517;43.562;19.540;2023-07-31T06:41:48;615.10;2432.00
70151;DHT22;57517;43.562;19.540;2023-07-31T06:44:14;615.20;2432.00
70151;DHT22;57517;43.562;19.540;2023-07-31T06:46:40;640.30;2355.20
70151;DHT22;57517;43.562;19.540;2023-07-31T06:49:06;640.50;2304.00
70151;DHT22;57517;43.562;19.540;2023-07-31T06:51:31;640.70;2278.40
70151;DHT22;57517;43.562;19.540;2023-07-31T06:53:58;640.90;2227.20
70151;DHT22;57517;43.562;19.540;2023-07-31T06:56:23;640.70;2278.40
70151;DHT22;57517;43.562;19.540;2023-07-31T06:58:49;640.30;2380.80
70151;DHT22;57517;43.562;19.540;2023-07-31T07:01:15;640.40;2355.20
70151;DHT22;57517;43.562;19.540;2023-07-31T07:03:41;691.60;2022.40
70151;DHT22;57517;43.562;19.540;2023-07-31T07:06:07;717.70;1740.80
70151;DHT22;57517;43.562;19.540;2023-07-31T07:08:34;768.70;1561.60
70151;DHT22;57517;43.562;19.540;2023-07-31T07:11:00;819.70;1408.00
70151;DHT22;57517;43.562;19.540;2023-07-31T07:13:25;844.90;1382.40
70151;DHT22;57517;43.562;19.540;2023-07-31T07:15:51;845.00;1356.80
70151;DHT22;57517;43.562;19.540;2023-07-31T07:18:17;845.60;1305.60
70151;DHT22;57517;43.562;19.540;2023-07-31T07:20:51;819.60;1408.00
70151;DHT22;57517;43.562;19.540;2023-07-31T07:23:18;819.90;1356.80
70151;DHT22;57517;43.562;19.540;2023-07-31T07:25:44;793.70;1459.20
70151;DHT22;57517;43.562;19.540;2023-07-31T07:28:10;819.60;1408.00
70151;DHT22;57517;43.562;19.540;2023-07-31T07:30:36;845.50;1305.60
70151;DHT22;57517;43.562;19.540;2023-07-31T07:33:02;896.10;1203.20
70151;DHT22;57517;43.562;19.540;2023-07-31T07:35:28;896.90;1152.00
70151;DHT22;57517;43.562;19.540;2023-07-31T07:37:54;896.30;1177.60
70151;DHT22;57517;43.562;19.540;2023-07-31T07:40:20;896.50;1177.60
70151;DHT22;57517;43.562;19.540;2023-07-31T07:42:46;896.50;1177.60
70151;DHT22;57517;43.562;19.540;2023-07-31T07:45:12;896.70;1126.40
70151;DHT22;57517;43.562;19.540;2023-07-31T07:47:40;896.70;1126.40
70151;DHT22;57517;43.562;19.540;2023-07-31T07:50:07;871.10;1177.60
70151;DHT22;57517;43.562;19.540;2023-07-31T07:52:33;845.20;1280.00
70151;DHT22;57517;43.562;19.540;2023-07-31T07:54:58;820.00;1280.00
70151;DHT22;57517;43.562;19.540;2023-07-31T07:57:26;794.00;1382.40
70151;DHT22;57517;43.562;19.540;2023-07-31T07:59:51;768.70;1382.40
70151;DHT22;57517;43.562;19.540;2023-07-31T08:02:17;768.30;1433.60
70151;DHT22;57517;43.562;19.540;2023-07-31T08:04:43;768.20;1433.60
70151;DHT22;57517;43.562;19.540;2023-07-31T08:07:11;768.40;1433.60
70151;DHT22;57517;43.562;19.540;2023-07-31T08:09:38;743.30;1484.80
70151;DHT22;57517;43.562;19.540;2023-07-31T08:12:04;768.80;1433.60
70151;DHT22;57517;43.562;19.540;2023-07-31T08:14:30;794.00;1433.60
70151;DHT22;57517;43.562;19.540;2023-07-31T08:16:56;793.90;1433.60
70151;DHT22;57517;43.562;19.540;2023-07-31T08:19:22;793.60;1433.60
70151;DHT22;57517;43.562;19.540;2023-07-31T08:21:48;793.80;1408.00
70151;DHT22;57517;43.562;19.540;2023-07-31T08:24:14;794.00;1408.00
70151;DHT22;57517;43.562;19.540;2023-07-31T08:26:39;793.90;1408.00
70151;DHT22;57517;43.562;19.540;2023-07-31T08:29:05;794.20;1382.40
70151;DHT22;57517;43.562;19.540;2023-07-31T08:31:31;793.80;1408.00
70151;DHT22;57517;43.562;19.540;2023-07-31T08:33:57;794.00;1356.80
70151;DHT22;57517;43.562;19.540;2023-07-31T08:36:23;793.70;1382.40
70151;DHT22;57517;43.562;19.540;2023-07-31T08:38:48;768.90;1382.40
70151;DHT22;57517;43.562;19.540;2023-07-31T08:41:15;793.90;1382.40
70151;DHT22;57517;43.562;19.540;2023-07-31T08:43:47;794.40;1331.20
70151;DHT22;57517;43.562;19.540;2023-07-31T08:46:15;794.00;1356.80
70151;DHT22;57517;43.562;19.540;2023-07-31T08:48:42;793.90;1331.20
70151;DHT22;57517;43.562;19.540;2023-07-31T08:51:08;768.50;1382.40
70151;DHT22;57517;43.562;19.540;2023-07-31T08:53:35;768.20;1408.00
70151;DHT22;57517;43.562;19.540;2023-07-31T08:56:01;743.10;1433.60
70151;DHT22;57517;43.562;19.540;2023-07-31T08:58:32;717.70;1484.80
70151;DHT22;57517;43.562;19.540;2023-07-31T09:01:04;717.60;1510.40
70151;DHT22;57517;43.562;19.540;2023-07-31T09:03:33;717.20;1561.60
70151;DHT22;57517;43.562;19.540;2023-07-31T09:06:00;717.50;1536.00
70151;DHT22;57517;43.562;19.540;2023-07-31T09:08:30;717.70;1510.40
70151;DHT22;57517;43.562;19.540;2023-07-31T09:11:02;742.50;1484.80
70151;DHT22;57517;43.562;19.540;2023-07-31T09:13:31;742.40;1484.80
70151;DHT22;57517;43.562;19.540;2023-07-31T09:15:57;717.30;1510.40
70151;DHT22;57517;43.562;19.540;2023-07-31T09:18:23;717.20;1536.00
70151;DHT22;57517;43.562;19.540;2023-07-31T09:21:05;717.00;1561.60
70151;DHT22;57517;43.562;19.540;2023-07-31T09:23:45;692.00;1536.00
70151;DHT22;57517;43.562;19.540;2023-07-31T09:26:11;692.00;1561.60
70151;DHT22;57517;43.562;19.540;2023-07-31T09:28:37;691.90;1587.20
70151;DHT22;57517;43.562;19.540;2023-07-31T09:31:03;692.00;1561.60
70151;DHT22;57517;43.562;19.540;2023-07-31T09:33:29;717.20;1561.60
70151;DHT22;57517;43.562;19.540;2023-07-31T09:35:58;742.50;1536.00
70151;DHT22;57517;43.562;19.540;2023-07-31T09:38:24;743.00;1459.20
70151;DHT22;57517;43.562;19.540;2023-07-31T09:40:50;743.30;1433.60
70151;DHT22;57517;43.562;19.540;2023-07-31T09:43:20;743.30;1433.60
70151;DHT22;57517;43.562;19.540;2023-07-31T09:45:46;743.10;1382.40
70151;DHT22;57517;43.562;19.540;2023-07-31T09:48:14;742.80;1356.80
70151;DHT22;57517;43.562;19.540;2023-07-31T09:50:47;742.50;1408.00
70151;DHT22;57517;43.562;19.540;2023-07-31T09:53:15;717.40;1408.00
70151;DHT22;57517;43.562;19.540;2023-07-31T09:55:42;717.10;1408.00
70151;DHT22;57517;43.562;19.540;2023-07-31T09:58:13;716.90;1408.00
70151;DHT22;57517;43.562;19.540;2023-07-31T10:00:39;692.10;1408.00
70151;DHT22;57517;43.562;19.540;2023-07-31T10:03:09;692.10;1433.60
70151;DHT22;57517;43.562;19.540;2023-07-31T10:05:40;716.80;1484.80
70151;DHT22;57517;43.562;19.540;2023-07-31T10:08:09;692.00;1484.80
70151;DHT22;57517;43.562;19.540;2023-07-31T10:10:41;717.00;1484.80
70151;DHT22;57517;43.562;19.540;2023-07-31T10:13:09;717.40;1433.60
70151;DHT22;57517;43.562;19.540;2023-07-31T10:15:36;717.50;1408.00
70151;DHT22;57517;43.562;19.540;2023-07-31T10:18:02;717.60;1408.00
70151;DHT22;57517;43.562;19.540;2023-07-31T10:20:31;717.70;1408.00
70151;DHT22;57517;43.562;19.540;2023-07-31T10:22:57;742.80;1382.40
70151;DHT22;57517;43.562;19.540;2023-07-31T10:25:26;742.60;1382.40
70151;DHT22;57517;43.562;19.540;2023-07-31T10:27:53;717.60;1356.80
70151;DHT22;57517;43.562;19.540;2023-07-31T10:30:26;717.40;1356.80
70151;DHT22;57517;43.562;19.540;2023-07-31T10:32:53;717.20;1356.80
70151;DHT22;57517;43.562;19.540;2023-07-31T10:35:20;717.40;1331.20
70151;DHT22;57517;43.562;19.540;2023-07-31T10:37:48;717.30;1356.80
70151;DHT22;57517;43.562;19.540;2023-07-31T10:40:40;717.20;1408.00
70151;DHT22;57517;43.562;19.540;2023-07-31T10:43:06;717.30;1356.80
70151;DHT22;57517;43.562;19.540;2023-07-31T10:45:37;717.30;1356.80
70151;DHT22;57517;43.562;19.540;2023-07-31T10:48:13;717.40;1305.60
70151;DHT22;57517;43.562;19.540;2023-07-31T10:50:50;717.60;1305.60
70151;DHT22;57517;43.562;19.540;2023-07-31T10:53:27;742.60;1331.20
70151;DHT22;57517;43.562;19.540;2023-07-31T10:56:01;743.00;1280.00
70151;DHT22;57517;43.562;19.540;2023-07-31T10:58:27;768.10;1254.40
70151;DHT22;57517;43.562;19.540;2023-07-31T11:00:58;768.10;1228.80
70151;DHT22;57517;43.562;19.540;2023-07-31T11:06:09;768.00;1203.20
70151;DHT22;57517;43.562;19.540;2023-07-31T11:08:42;768.10;1203.20
70151;DHT22;57517;43.562;19.540;2023-07-31T11:11:11;768.10;1203.20
70151;DHT22;57517;43.562;19.540;2023-07-31T11:13:48;768.00;1152.00
70151;DHT22;57517;43.562;19.540;2023-07-31T11:16:24;743.30;1152.00
70151;DHT22;57517;43.562;19.540;2023-07-31T11:18:51;743.30;1177.60
70151;DHT22;57517;43.562;19.540;2023-07-31T11:21:23;743.30;1177.60
70151;DHT22;57517;43.562;19.540;2023-07-31T11:23:55;768.10;1152.00
70151;DHT22;57517;43.562;19.540;2023-07-31T11:26:23;768.30;1152.00
70151;DHT22;57517;43.562;19.540;2023-07-31T11:28:50;768.20;1152.00
70151;DHT22;57517;43.562;19.540;2023-07-31T11:31:17;768.20;1152.00
70151;DHT22;57517;43.562;19.540;2023-07-31T11:33:43;768.10;1177.60
70151;DHT22;57517;43.562;19.540;2023-07-31T11:36:20;768.20;1177.60
70151;DHT22;57517;43.562;19.540;2023-07-31T11:38:46;768.30;1152.00
70151;DHT22;57517;43.562;19.540;2023-07-31T11:41:16;768.30;1126.40
70151;DHT22;57517;43.562;19.540;2023-07-31T11:43:42;768.40;1126.40
70151;DHT22;57517;43.562;19.540;2023-07-31T11:46:09;768.40;1152.00
70151;DHT22;57517;43.562;19.540;2023-07-31T11:48:36;768.60;1177.60
70151;DHT22;57517;43.562;19.540;2023-07-31T11:51:08;768.50;1152.00
70151;DHT22;57517;43.562;19.540;2023-07-31T11:53:44;768.20;1152.00
70151;DHT22;57517;43.562;19.540;2023-07-31T11:56:14;768.00;1177.60
70151;DHT22;57517;43.562;19.540;2023-07-31T11:58:43;743.30;1177.60
70151;DHT22;57517;43.562;19.540;2023-07-31T12:01:10;768.00;1203.20
70151;DHT22;57517;43.562;19.540;2023-07-31T12:03:37;768.20;1203.20
70151;DHT22;57517;43.562;19.540;2023-07-31T12:06:03;768.40;1152.00
70151;DHT22;57517;43.562;19.540;2023-07-31T12:08:29;768.40;1126.40
70151;DHT22;57517;43.562;19.540;2023-07-31T12:11:03;768.60;1100.80
70151;DHT22;57517;43.562;19.540;2023-07-31T12:13:31;768.70;1152.00
70151;DHT22;57517;43.562;19.540;2023-07-31T12:15:59;768.80;1126.40
70151;DHT22;57517;43.562;19.540;2023-07-31T12:18:28;768.70;1100.80
70151;DHT22;57517;43.562;19.540;2023-07-31T12:20:56;768.70;1126.40
70151;DHT22;57517;43.562;19.540;2023-07-31T12:23:25;768.60;1126.40
70151;DHT22;57517;43.562;19.540;2023-07-31T12:28:26;768.60;1126.40
70151;DHT22;57517;43.562;19.540;2023-07-31T12:30:51;768.60;1126.40
70151;DHT22;57517;43.562;19.540;2023-07-31T12:33:22;768.60;1100.80
70151;DHT22;57517;43.562;19.540;2023-07-31T12:35:47;768.50;1126.40
70151;DHT22;57517;43.562;19.540;2023-07-31T12:38:13;768.60;1126.40
70151;DHT22;57517;43.562;19.540;2023-07-31T12:40:41;768.50;1100.80
70151;DHT22;57517;43.562;19.540;2023-07-31T12:43:07;768.50;1126.40
70151;DHT22;57517;43.562;19.540;2023-07-31T12:45:34;768.50;1126.40
70151;DHT22;57517;43.562;19.540;2023-07-31T12:48:00;768.30;1100.80
70151;DHT22;57517;43.562;19.540;2023-07-31T12:50:26;768.30;1126.40
70151;DHT22;57517;43.562;19.540;2023-07-31T12:52:56;768.40;1126.40
70151;DHT22;57517;43.562;19.540;2023-07-31T12:55:22;768.30;1126.40
70151;DHT22;57517;43.562;19.540;2023-07-31T12:57:49;768.40;1126.40
70151;DHT22;57517;43.562;19.540;2023-07-31T13:00:15;768.40;1126.40
70151;DHT22;57517;43.562;19.540;2023-07-31T13:02:41;768.60;1126.40
70151;DHT22;57517;43.562;19.540;2023-07-31T13:05:07;768.50;1126.40
70151;DHT22;57517;43.562;19.540;2023-07-31T13:07:33;768.70;1152.00
70151;DHT22;57517;43.562;19.540;2023-07-31T13:09:59;768.70;1126.40
70151;DHT22;57517;43.562;19.540;2023-07-31T13:12:25;768.70;1126.40
70151;DHT22;57517;43.562;19.540;2023-07-31T13:14:51;768.60;1100.80
70151;DHT22;57517;43.562;19.540;2023-07-31T13:17:17;768.50;1126.40
70151;DHT22;57517;43.562;19.540;2023-07-31T13:19:43;768.40;1152.00
70151;DHT22;57517;43.562;19.540;2023-07-31T13:22:09;768.40;1126.40
70151;DHT22;57517;43.562;19.540;2023-07-31T13:24:35;768.50;1126.40
70151;DHT22;57517;43.562;19.540;2023-07-31T13:27:01;768.60;1126.40
70151;DHT22;57517;43.562;19.540;2023-07-31T13:29:26;768.40;1126.40
70151;DHT22;57517;43.562;19.540;2023-07-31T13:31:53;768.30;1126.40
70151;DHT22;57517;43.562;19.540;2023-07-31T13:34:18;768.50;1126.40
70151;DHT22;57517;43.562;19.540;2023-07-31T13:36:44;768.40;1126.40
70151;DHT22;57517;43.562;19.540;2023-07-31T13:39:10;768.40;1126.40
70151;DHT22;57517;43.562;19.540;2023-07-31T13:41:36;768.60;1152.00
70151;DHT22;57517;43.562;19.540;2023-07-31T13:44:02;768.70;1126.40
70151;DHT22;57517;43.562;19.540;2023-07-31T13:46:27;768.70;1126.40
70151;DHT22;57517;43.562;19.540;2023-07-31T13:48:53;768.80;1126.40
70151;DHT22;57517;43.562;19.540;2023-07-31T13:51:21;768.90;1126.40
70151;DHT22;57517;43.562;19.540;2023-07-31T13:53:47;768.90;1126.40
70151;DHT22;57517;43.562;19.540;2023-07-31T13:56:13;768.90;1100.80
70151;DHT22;57517;43.562;19.540;2023-07-31T13:58:39;768.90;1100.80
70151;DHT22;57517;43.562;19.540;2023-07-31T14:01:05;768.90;1100.80
70151;DHT22;57517;43.562;19.540;2023-07-31T14:03:31;768.70;1126.40
70151;DHT22;57517;43.562;19.540;2023-07-31T14:05:57;768.70;1126.40
70151;DHT22;57517;43.562;19.540;2023-07-31T14:08:23;768.70;1126.40
70151;DHT22;57517;43.562;19.540;2023-07-31T14:10:49;768.80;1126.40
70151;DHT22;57517;43.562;19.540;2023-07-31T14:13:15;768.90;1100.80
70151;DHT22;57517;43.562;19.540;2023-07-31T14:15:44;768.90;1075.20
70151;DHT22;57517;43.562;19.540;2023-07-31T14:18:10;768.90;1075.20
70151;DHT22;57517;43.562;19.540;2023-07-31T14:20:36;768.90;1075.20
70151;DHT22;57517;43.562;19.540;2023-07-31T14:23:02;768.70;1100.80
70151;DHT22;57517;43.562;19.540;2023-07-31T14:25:28;768.50;1126.40
70151;DHT22;57517;43.562;19.540;2023-07-31T14:27:54;768.50;1126.40
70151;DHT22;57517;43.562;19.540;2023-07-31T14:30:20;768.20;1075.20
70151;DHT22;57517;43.562;19.540;2023-07-31T14:32:46;768.10;1075.20
70151;DHT22;57517;43.562;19.540;2023-07-31T14:35:12;768.00;1100.80
70151;DHT22;57517;43.562;19.540;2023-07-31T14:37:42;768.10;1100.80
70151;DHT22;57517;43.562;19.540;2023-07-31T14:40:10;768.10;1075.20
70151;DHT22;57517;43.562;19.540;2023-07-31T14:42:36;768.10;1100.80
70151;DHT22;57517;43.562;19.540;2023-07-31T14:45:04;743.30;1100.80